Time;durP1;ratioP1;P1;durP2;ratioP2;P2;SDS_P1;SDS_P2;PMS_P1;PMS_P2;Temp;Humidity;BMP_temperature;BMP_pressure;BME280_temperature;BME280_humidity;BME280_pressure;Samples;Min_cycle;Max_cycle;Signal;HPM_P1;HPM_P2
2022/08/01 00:00:41;;;;;;;13.85;9.25;;;18.90;99.90;;;;;;5040355;28;20034;-75
2022/08/01 00:03:07;;;;;;;14.00;9.35;;;18.90;99.90;;;;;;5045572;28;20179;-75
2022/08/01 00:05:33;;;;;;;13.02;9.32;;;18.90;99.90;;;;;;5045960;28;20050;-76
2022/08/01 00:07:59;;;;;;;12.50;9.13;;;18.90;99.90;;;;;;5045689;28;20407;-75
2022/08/01 00:10:24;;;;;;;11.82;8.77;;;18.90;99.90;;;;;;5061296;28;20399;-76
2022/08/01 00:12:50;;;;;;;13.30;9.52;;;18.90;99.90;;;;;;5047179;28;20040;-76
2022/08/01 00:15:16;;;;;;;15.90;10.18;;;18.90;99.90;;;;;;5045089;28;20123;-76
2022/08/01 00:17:43;;;;;;;12.68;9.70;;;18.90;99.90;;;;;;5045245;28;20045;-75
2022/08/01 00:20:12;;;;;;;14.32;9.38;;;18.90;99.90;;;;;;5045361;28;20036;-75
2022/08/01 00:22:38;;;;;;;11.85;9.60;;;18.90;99.90;;;;;;5045569;28;20434;-75
2022/08/01 00:25:05;;;;;;;13.50;9.68;;;18.90;99.90;;;;;;5042798;28;20055;-76
2022/08/01 00:27:31;;;;;;;14.07;9.30;;;18.90;99.90;;;;;;5047183;28;20630;-75
2022/08/01 00:29:58;;;;;;;17.90;11.13;;;18.90;99.90;;;;;;5046835;28;20082;-76
2022/08/01 00:32:24;;;;;;;14.18;10.38;;;18.90;99.90;;;;;;5043623;28;20398;-76
2022/08/01 00:34:49;;;;;;;12.63;10.18;;;18.90;99.90;;;;;;5048271;28;20387;-76
2022/08/01 00:37:15;;;;;;;13.60;9.85;;;18.90;99.90;;;;;;5047778;28;20047;-75
2022/08/01 00:39:41;;;;;;;15.70;10.75;;;18.90;99.90;;;;;;5045723;28;20045;-75
2022/08/01 00:42:08;;;;;;;12.88;9.57;;;18.90;99.90;;;;;;5045696;28;20044;-75
2022/08/01 00:44:34;;;;;;;12.60;9.60;;;18.90;99.90;;;;;;5043806;28;20847;-75
2022/08/01 00:47:00;;;;;;;12.50;9.48;;;18.90;99.90;;;;;;5029104;28;20037;-75
2022/08/01 00:49:27;;;;;;;14.88;10.05;;;18.90;99.90;;;;;;5025870;28;20048;-76
2022/08/01 00:51:52;;;;;;;15.48;9.43;;;18.90;99.90;;;;;;5044999;28;20060;-75
2022/08/01 00:54:18;;;;;;;14.20;9.70;;;18.90;99.90;;;;;;5026200;28;20617;-75
2022/08/01 00:56:44;;;;;;;12.25;8.88;;;18.90;99.90;;;;;;5022722;28;20037;-76
2022/08/01 00:59:11;;;;;;;11.40;8.35;;;18.80;99.90;;;;;;5044738;28;20128;-76
2022/08/01 01:01:37;;;;;;;11.85;8.77;;;18.90;99.90;;;;;;5042806;28;20569;-75
2022/08/01 01:04:03;;;;;;;10.50;7.70;;;18.80;99.90;;;;;;5041695;28;20041;-75
2022/08/01 01:06:44;;;;;;;8.85;7.60;;;18.80;99.90;;;;;;5044619;28;20041;-75
2022/08/01 01:09:33;;;;;;;11.93;8.15;;;18.80;99.90;;;;;;5043201;28;20041;-75
2022/08/01 01:12:28;;;;;;;8.85;7.10;;;18.80;99.90;;;;;;5042975;28;20068;-76
2022/08/01 01:15:02;;;;;;;8.60;6.47;;;18.80;99.90;;;;;;5042832;28;20407;-76
2022/08/01 01:17:34;;;;;;;8.50;6.07;;;18.80;99.90;;;;;;5042083;28;20068;-76
2022/08/01 01:20:02;;;;;;;10.95;6.60;;;18.70;99.90;;;;;;5043705;28;20111;-75
2022/08/01 01:23:01;;;;;;;7.55;5.43;;;18.70;99.90;;;;;;5042877;28;20033;-76
2022/08/01 01:25:44;;;;;;;6.28;5.10;;;18.70;99.90;;;;;;5026637;28;20486;-76
2022/08/01 01:28:14;;;;;;;;;;;18.70;99.90;;;;;;5040527;28;20063;-76
2022/08/01 01:30:44;;;;;;;6.05;5.18;;;18.70;99.90;;;;;;5041564;28;20054;-76
2022/08/01 01:33:12;;;;;;;7.45;5.40;;;18.70;99.90;;;;;;5042066;28;20052;-75
2022/08/01 01:35:44;;;;;;;8.48;5.28;;;18.70;99.90;;;;;;5043452;28;20040;-75
2022/08/01 01:38:29;;;;;;;9.00;5.75;;;18.70;99.90;;;;;;5045040;28;20068;-76
2022/08/01 01:40:56;;;;;;;7.75;5.85;;;18.70;99.90;;;;;;5045840;28;20041;-75
2022/08/01 01:43:25;;;;;;;12.57;6.03;;;18.70;99.90;;;;;;5046520;28;20113;-76
2022/08/01 01:45:52;;;;;;;10.25;6.53;;;18.60;99.90;;;;;;5044813;28;20083;-76
2022/08/01 01:48:20;;;;;;;8.18;6.22;;;18.70;99.90;;;;;;5043719;28;20049;-75
2022/08/01 01:50:47;;;;;;;6.65;5.90;;;18.70;99.90;;;;;;5041628;28;20052;-75
2022/08/01 01:53:15;;;;;;;7.13;6.25;;;18.70;99.90;;;;;;5041624;28;20048;-76
2022/08/01 01:55:44;;;;;;;8.65;6.78;;;18.70;99.90;;;;;;5048707;28;20052;-75
2022/08/01 01:58:13;;;;;;;10.43;6.55;;;18.70;99.90;;;;;;5042433;28;20037;-76
2022/08/01 02:00:40;;;;;;;12.10;6.97;;;18.70;99.90;;;;;;5042560;28;20036;-75
2022/08/01 02:03:10;;;;;;;11.48;7.32;;;18.70;99.90;;;;;;5039074;28;20045;-75
2022/08/01 02:05:37;;;;;;;8.88;7.28;;;18.70;99.90;;;;;;5040510;28;20041;-75
2022/08/01 02:08:05;;;;;;;9.43;6.45;;;18.70;99.90;;;;;;5038131;28;20048;-75
2022/08/01 02:10:32;;;;;;;7.85;5.25;;;18.70;99.90;;;;;;5044698;28;20083;-75
2022/08/01 02:13:01;;;;;;;9.45;5.03;;;18.70;99.90;;;;;;5044603;28;20058;-76
2022/08/01 02:15:28;;;;;;;6.57;4.35;;;18.70;99.90;;;;;;5041043;28;20051;-76
2022/08/01 02:17:56;;;;;;;4.75;4.13;;;18.70;99.90;;;;;;5038780;28;20135;-75
2022/08/01 02:20:22;;;;;;;5.68;4.10;;;18.70;99.90;;;;;;5039635;28;20032;-75
2022/08/01 02:22:53;;;;;;;4.80;4.30;;;18.60;99.90;;;;;;5058738;28;20043;-76
2022/08/01 02:25:36;;;;;;;6.05;4.20;;;18.60;99.90;;;;;;5040770;28;20237;-76
2022/08/01 02:28:06;;;;;;;4.45;4.00;;;18.60;99.90;;;;;;5038081;28;20045;-75
2022/08/01 02:30:38;;;;;;;4.82;3.75;;;18.60;99.90;;;;;;5040545;28;20036;-75
2022/08/01 02:33:21;;;;;;;8.95;4.18;;;18.60;99.90;;;;;;5037440;28;21766;-75
2022/08/01 02:35:51;;;;;;;7.78;3.42;;;18.50;99.90;;;;;;5056158;28;20086;-75
2022/08/01 02:38:20;;;;;;;6.75;4.03;;;18.50;99.90;;;;;;5037336;28;20045;-75
2022/08/01 02:40:47;;;;;;;5.60;3.95;;;18.50;99.90;;;;;;5046101;28;20037;-76
2022/08/01 02:43:18;;;;;;;6.72;3.75;;;18.50;99.90;;;;;;5039868;28;20036;-75
2022/08/01 02:45:49;;;;;;;4.18;3.70;;;18.50;99.90;;;;;;5040498;28;20111;-76
2022/08/01 02:48:18;;;;;;;5.93;3.63;;;18.50;99.90;;;;;;5042231;28;20048;-75
2022/08/01 02:50:46;;;;;;;6.65;4.07;;;18.50;99.90;;;;;;5040830;28;20044;-75
2022/08/01 02:53:14;;;;;;;7.30;4.30;;;18.50;99.90;;;;;;5045129;28;20040;-75
2022/08/01 02:55:42;;;;;;;4.72;3.97;;;18.50;99.90;;;;;;5039940;28;20041;-75
2022/08/01 02:58:10;;;;;;;8.18;4.53;;;18.50;99.90;;;;;;5042088;28;20109;-76
2022/08/01 03:00:36;;;;;;;4.70;4.20;;;18.40;99.90;;;;;;5042264;28;20033;-75
2022/08/01 03:03:06;;;;;;;8.90;4.00;;;18.40;99.90;;;;;;5043097;28;20041;-75
2022/08/01 03:05:34;;;;;;;5.72;3.63;;;18.40;99.90;;;;;;5038973;28;20039;-75
2022/08/01 03:08:01;;;;;;;3.60;3.05;;;18.50;99.90;;;;;;5041096;28;20041;-76
2022/08/01 03:10:29;;;;;;;6.80;3.05;;;18.40;99.90;;;;;;5036812;28;20094;-75
2022/08/01 03:12:56;;;;;;;6.88;3.20;;;18.50;99.90;;;;;;5040480;28;20036;-75
2022/08/01 03:15:25;;;;;;;6.95;2.85;;;18.40;99.90;;;;;;5043535;28;20029;-76
2022/08/01 03:17:52;;;;;;;5.93;3.22;;;18.40;99.90;;;;;;5042531;28;20037;-76
2022/08/01 03:20:21;;;;;;;4.22;2.40;;;18.30;99.90;;;;;;5021662;28;20043;-75
2022/08/01 03:22:51;;;;;;;7.28;2.70;;;18.20;99.90;;;;;;5043751;28;20037;-75
2022/08/01 03:25:18;;;;;;;4.07;2.30;;;18.30;99.90;;;;;;5040195;28;20164;-75
2022/08/01 03:27:47;;;;;;;7.68;2.83;;;18.30;99.90;;;;;;5041804;28;20029;-75
2022/08/01 03:30:15;;;;;;;6.75;2.75;;;18.20;99.90;;;;;;5026656;28;20041;-75
2022/08/01 03:32:41;;;;;;;6.20;2.67;;;18.20;99.90;;;;;;5042918;28;20515;-75
2022/08/01 03:35:07;;;;;;;6.00;2.60;;;18.20;99.90;;;;;;5040222;28;20044;-75
2022/08/01 03:37:40;;;;;;;4.30;2.00;;;18.20;99.90;;;;;;5038196;28;20045;-75
2022/08/01 03:40:11;;;;;;;5.35;2.33;;;18.20;99.90;;;;;;5040758;28;20029;-75
2022/08/01 03:42:44;;;;;;;8.80;2.50;;;18.10;99.90;;;;;;5043556;28;20129;-75
2022/08/01 03:45:14;;;;;;;5.45;2.33;;;18.10;99.90;;;;;;5058054;28;20120;-75
2022/08/01 03:47:43;;;;;;;7.57;2.35;;;18.10;99.90;;;;;;5042515;28;20132;-74
2022/08/01 03:50:11;;;;;;;6.70;2.10;;;18.10;99.90;;;;;;5041245;28;20043;-75
2022/08/01 03:52:39;;;;;;;6.57;2.10;;;18.10;99.90;;;;;;5057662;28;20072;-75
2022/08/01 03:55:07;;;;;;;8.10;2.30;;;18.10;99.90;;;;;;5039196;28;20045;-75
2022/08/01 03:57:33;;;;;;;7.82;2.22;;;18.10;99.90;;;;;;5055632;28;20045;-75
2022/08/01 04:00:00;;;;;;;6.97;2.20;;;18.00;99.90;;;;;;5041360;28;20041;-75
2022/08/01 04:02:29;;;;;;;9.82;2.30;;;18.10;99.90;;;;;;5043065;28;20041;-75
2022/08/01 04:04:55;;;;;;;6.93;2.30;;;18.10;99.90;;;;;;5042733;28;20045;-75
2022/08/01 04:07:26;;;;;;;8.25;2.25;;;18.10;99.90;;;;;;5044614;28;20406;-75
2022/08/01 04:09:51;;;;;;;6.05;2.22;;;18.00;99.90;;;;;;5042026;28;20039;-76
2022/08/01 04:12:18;;;;;;;7.65;2.30;;;18.00;99.90;;;;;;5041532;28;20033;-75
2022/08/01 04:14:44;;;;;;;9.00;2.50;;;18.10;99.90;;;;;;5042633;28;21259;-75
2022/08/01 04:17:10;;;;;;;7.28;2.50;;;18.10;99.90;;;;;;5044701;28;20082;-74
2022/08/01 04:19:35;;;;;;;9.18;2.40;;;18.00;99.90;;;;;;5046322;28;20441;-75
2022/08/01 04:22:02;;;;;;;8.15;2.47;;;18.00;99.90;;;;;;5043534;28;20511;-75
2022/08/01 04:24:29;;;;;;;7.80;2.33;;;18.10;99.90;;;;;;5037617;28;20043;-75
2022/08/01 04:26:58;;;;;;;8.55;2.50;;;18.10;99.90;;;;;;5041372;28;20037;-75
2022/08/01 04:29:24;;;;;;;10.63;2.58;;;18.00;99.90;;;;;;5026507;28;20040;-75
2022/08/01 04:31:54;;;;;;;6.63;2.60;;;17.90;99.90;;;;;;5047321;28;20071;-75
2022/08/01 04:34:24;;;;;;;6.68;2.38;;;18.00;99.90;;;;;;5043093;28;20055;-74
2022/08/01 04:36:52;;;;;;;8.20;2.70;;;18.00;99.90;;;;;;5062254;28;20049;-75
2022/08/01 04:39:20;;;;;;;7.47;2.60;;;18.00;99.90;;;;;;5041876;28;20053;-74
2022/08/01 04:41:46;;;;;;;10.82;2.83;;;18.00;99.90;;;;;;5042407;28;20360;-75
2022/08/01 04:44:13;;;;;;;8.38;2.60;;;18.00;99.90;;;;;;5043503;28;20056;-74
2022/08/01 04:46:40;;;;;;;11.27;2.63;;;18.00;99.90;;;;;;5044677;28;20068;-75
2022/08/01 04:49:08;;;;;;;7.13;2.70;;;18.00;99.90;;;;;;5043350;28;20047;-75
2022/08/01 04:51:34;;;;;;;11.20;2.83;;;18.00;99.90;;;;;;5043630;28;20055;-74
2022/08/01 04:54:00;;;;;;;11.57;3.10;;;18.00;99.90;;;;;;5044697;28;20052;-74
2022/08/01 04:56:26;;;;;;;17.52;3.47;;;18.00;99.90;;;;;;5042387;28;20138;-74
2022/08/01 04:59:39;;;;;;;11.00;2.97;;;18.00;99.90;;;;;;5043858;28;20068;-74
2022/08/01 05:01:38;;;;;;;10.25;2.80;;;18.00;99.90;;;;;;5036976;28;20086;-74
2022/08/01 05:04:04;;;;;;;12.82;3.00;;;18.00;99.90;;;;;;5044081;28;20472;-74
2022/08/01 05:06:30;;;;;;;11.75;2.95;;;18.00;99.90;;;;;;5042601;28;20049;-74
2022/08/01 05:08:55;;;;;;;10.70;3.40;;;18.00;99.90;;;;;;5043409;28;21342;-74
2022/08/01 05:11:21;;;;;;;12.15;3.00;;;18.00;99.90;;;;;;5043224;28;20040;-74
2022/08/01 05:13:48;;;;;;;12.18;3.10;;;18.00;99.90;;;;;;5042295;28;20051;-74
2022/08/01 05:16:14;;;;;;;11.15;3.25;;;18.00;99.90;;;;;;5041839;28;20041;-74
2022/08/01 05:18:39;;;;;;;16.48;3.40;;;18.00;99.90;;;;;;5043704;28;20074;-74
2022/08/01 05:21:05;;;;;;;15.05;3.40;;;18.00;99.90;;;;;;5043844;28;20036;-74
2022/08/01 05:23:31;;;;;;;13.85;3.47;;;18.00;99.90;;;;;;5037451;28;20057;-74
2022/08/01 05:25:57;;;;;;;9.15;3.03;;;18.00;99.90;;;;;;5042236;28;20048;-74
2022/08/01 05:28:23;;;;;;;13.27;3.42;;;18.00;99.90;;;;;;5040803;28;20047;-74
2022/08/01 05:30:49;;;;;;;12.50;3.70;;;17.90;99.90;;;;;;5042227;28;20036;-73
2022/08/01 05:33:15;;;;;;;12.98;3.53;;;17.90;99.90;;;;;;5042885;28;20475;-74
2022/08/01 05:35:40;;;;;;;14.50;3.60;;;17.90;99.90;;;;;;5043339;28;20098;-74
2022/08/01 05:38:06;;;;;;;17.83;3.78;;;17.90;99.90;;;;;;5041668;28;20049;-73
2022/08/01 05:40:32;;;;;;;14.73;3.50;;;17.80;99.90;;;;;;5044306;28;20680;-73
2022/08/01 05:42:57;;;;;;;11.95;3.30;;;17.90;99.90;;;;;;5044102;28;20041;-71
2022/08/01 05:45:23;;;;;;;13.27;3.40;;;17.80;99.90;;;;;;5044667;28;20029;-74
2022/08/01 05:47:49;;;;;;;12.32;3.92;;;17.90;99.90;;;;;;5039589;28;20495;-73
2022/08/01 05:50:14;;;;;;;13.55;3.28;;;17.90;99.90;;;;;;5033334;28;20048;-74
2022/08/01 05:52:40;;;;;;;11.82;3.17;;;17.80;99.90;;;;;;5042417;28;20048;-74
2022/08/01 05:55:06;;;;;;;13.10;3.28;;;17.90;99.90;;;;;;5044240;28;20041;-74
2022/08/01 05:57:32;;;;;;;13.10;3.13;;;17.80;99.90;;;;;;5040132;28;20041;-74
2022/08/01 05:59:57;;;;;;;8.18;2.83;;;17.80;99.90;;;;;;5041017;28;20055;-74
2022/08/01 06:02:23;;;;;;;10.18;3.17;;;17.80;99.90;;;;;;5038289;28;20029;-74
2022/08/01 06:04:49;;;;;;;8.05;2.88;;;17.80;99.90;;;;;;5040215;28;20124;-74
2022/08/01 06:07:14;;;;;;;13.80;3.13;;;17.80;99.90;;;;;;5041387;28;20068;-74
2022/08/01 06:09:40;;;;;;;10.48;3.00;;;17.80;99.90;;;;;;5041581;28;20090;-74
2022/08/01 06:12:06;;;;;;;11.63;3.05;;;17.90;99.90;;;;;;5021536;28;20032;-74
2022/08/01 06:14:32;;;;;;;15.73;3.30;;;17.90;99.90;;;;;;5045667;28;20048;-74
2022/08/01 06:16:58;;;;;;;9.32;3.15;;;17.90;99.90;;;;;;5047937;28;20040;-74
2022/08/01 06:19:23;;;;;;;13.95;3.28;;;17.90;99.90;;;;;;5044372;28;20643;-74
2022/08/01 06:21:49;;;;;;;7.18;2.78;;;17.90;99.90;;;;;;5057909;28;20044;-74
2022/08/01 06:24:15;;;;;;;12.25;3.20;;;18.00;99.90;;;;;;5029837;28;20063;-73
2022/08/01 06:26:40;;;;;;;12.10;3.03;;;18.10;99.90;;;;;;5045482;28;20122;-74
2022/08/01 06:29:06;;;;;;;13.82;3.20;;;18.10;99.90;;;;;;5047354;28;20130;-74
2022/08/01 06:31:32;;;;;;;10.90;3.05;;;18.20;99.90;;;;;;5042676;28;20040;-74
2022/08/01 06:33:57;;;;;;;14.40;3.28;;;18.30;99.90;;;;;;5030181;28;20053;-74
2022/08/01 06:36:25;;;;;;;15.73;3.50;;;18.40;99.90;;;;;;5043398;28;20040;-74
2022/08/01 06:38:50;;;;;;;12.23;3.22;;;18.40;99.90;;;;;;5040583;28;20072;-74
2022/08/01 06:41:16;;;;;;;14.20;3.25;;;18.40;99.90;;;;;;5040110;28;20488;-74
2022/08/01 06:43:42;;;;;;;18.55;3.33;;;18.50;99.90;;;;;;5041505;28;20040;-73
2022/08/01 06:46:07;;;;;;;16.27;3.50;;;18.50;99.90;;;;;;5041466;28;20029;-73
2022/08/01 06:48:35;;;;;;;12.43;3.00;;;18.60;99.90;;;;;;5042921;28;20121;-74
2022/08/01 06:51:11;;;;;;;14.25;2.90;;;18.60;99.90;;;;;;5047302;28;20584;-73
2022/08/01 06:53:37;;;;;;;18.02;3.25;;;18.60;99.90;;;;;;5040043;28;20902;-74
2022/08/01 06:56:04;;;;;;;14.02;3.00;;;18.60;99.90;;;;;;5041906;28;20093;-73
2022/08/01 06:58:29;;;;;;;12.73;3.00;;;18.60;99.90;;;;;;5040976;28;20049;-73
2022/08/01 07:00:55;;;;;;;10.55;2.80;;;18.50;99.90;;;;;;5041972;28;20498;-74
2022/08/01 07:03:21;;;;;;;14.35;3.00;;;18.50;99.90;;;;;;5040349;28;20408;-74
2022/08/01 07:05:46;;;;;;;13.00;3.00;;;18.50;99.90;;;;;;5040610;28;20037;-74
2022/08/01 07:08:12;;;;;;;15.32;3.45;;;18.50;99.90;;;;;;5039753;28;20044;-74
2022/08/01 07:10:37;;;;;;;18.33;3.60;;;18.50;99.90;;;;;;5038998;28;20097;-74
2022/08/01 07:13:03;;;;;;;20.83;4.07;;;18.60;99.90;;;;;;5041617;28;20404;-75
2022/08/01 07:15:29;;;;;;;20.35;4.10;;;18.60;99.90;;;;;;5040372;28;20076;-75
2022/08/01 07:17:56;;;;;;;16.98;3.28;;;18.60;99.90;;;;;;5040003;28;20072;-74
2022/08/01 07:20:21;;;;;;;19.20;4.10;;;18.70;99.90;;;;;;5040149;28;20044;-74
2022/08/01 07:22:47;;;;;;;15.10;3.90;;;18.70;99.90;;;;;;5044927;28;20033;-74
2022/08/01 07:25:13;;;;;;;14.80;3.20;;;18.70;99.90;;;;;;5041108;28;20052;-75
2022/08/01 07:27:38;;;;;;;16.80;3.22;;;18.70;99.90;;;;;;5042241;28;20068;-74
2022/08/01 07:30:05;;;;;;;17.05;3.15;;;18.70;99.90;;;;;;5040957;28;20036;-74
2022/08/01 07:32:31;;;;;;;22.17;4.30;;;18.70;99.90;;;;;;5042407;28;20560;-74
2022/08/01 07:34:57;;;;;;;21.65;3.65;;;18.70;99.90;;;;;;5043996;28;20040;-74
2022/08/01 07:37:23;;;;;;;18.33;3.95;;;18.70;99.90;;;;;;5044660;28;20057;-74
2022/08/01 07:39:49;;;;;;;17.73;3.80;;;18.70;99.90;;;;;;5045144;28;20126;-73
2022/08/01 07:42:15;;;;;;;21.73;4.00;;;18.80;99.90;;;;;;5045092;28;20037;-73
2022/08/01 07:44:41;;;;;;;22.33;4.15;;;18.80;99.90;;;;;;5046260;28;20091;-72
2022/08/01 07:47:07;;;;;;;16.95;3.40;;;18.80;99.90;;;;;;5044338;28;20048;-72
2022/08/01 07:49:34;;;;;;;19.17;3.65;;;18.80;99.90;;;;;;5044468;28;20111;-72
2022/08/01 07:51:59;;;;;;;17.33;3.47;;;18.90;99.90;;;;;;5043774;28;20594;-72
2022/08/01 07:54:27;;;;;;;19.98;4.13;;;18.90;99.90;;;;;;5045275;28;20115;-72
2022/08/01 07:56:53;;;;;;;18.40;3.72;;;19.00;99.90;;;;;;5047641;28;20071;-72
2022/08/01 07:59:22;;;;;;;16.95;3.53;;;19.00;99.90;;;;;;5045537;28;20135;-73
2022/08/01 08:01:50;;;;;;;19.85;3.33;;;19.10;99.90;;;;;;5046742;28;20048;-72
2022/08/01 08:04:16;;;;;;;17.23;3.15;;;19.20;99.90;;;;;;5045651;28;20044;-72
2022/08/01 08:06:43;;;;;;;20.70;3.35;;;19.20;99.90;;;;;;5045027;28;20051;-72
2022/08/01 08:09:08;;;;;;;15.75;3.40;;;19.30;99.90;;;;;;5044937;28;20049;-72
2022/08/01 08:11:34;;;;;;;17.17;3.38;;;19.30;99.90;;;;;;5043442;28;20043;-72
2022/08/01 08:13:59;;;;;;;18.27;3.50;;;19.40;99.90;;;;;;5044859;28;20045;-72
2022/08/01 08:16:26;;;;;;;15.30;3.55;;;19.40;99.90;;;;;;5046536;28;20051;-72
2022/08/01 08:18:51;;;;;;;20.48;3.53;;;19.50;99.90;;;;;;5045187;28;20041;-75
2022/08/01 08:21:17;;;;;;;22.75;3.75;;;19.60;99.90;;;;;;5043215;28;20040;-75
2022/08/01 08:26:27;;;;;;;22.08;3.85;;;19.70;99.90;;;;;;5042686;28;20613;-75
2022/08/01 08:28:53;;;;;;;20.73;3.92;;;19.80;99.90;;;;;;5043816;28;20040;-75
2022/08/01 08:31:19;;;;;;;20.98;3.95;;;19.90;99.90;;;;;;5045690;28;20072;-75
2022/08/01 08:33:44;;;;;;;15.93;2.97;;;20.00;99.90;;;;;;5044865;28;20036;-75
2022/08/01 08:36:11;;;;;;;17.13;3.08;;;20.00;99.90;;;;;;5043867;28;20091;-75
2022/08/01 08:38:36;;;;;;;13.00;3.03;;;20.10;99.90;;;;;;5045205;28;20095;-75
2022/08/01 08:41:02;;;;;;;18.08;3.35;;;20.20;99.90;;;;;;5044860;28;20041;-75
2022/08/01 08:43:28;;;;;;;17.48;3.20;;;20.30;99.90;;;;;;5045762;28;20065;-75
2022/08/01 08:45:54;;;;;;;20.38;4.63;;;20.30;99.90;;;;;;5043897;28;20041;-75
2022/08/01 08:48:21;;;;;;;17.23;3.33;;;20.40;99.90;;;;;;5046398;28;20048;-75
2022/08/01 08:50:48;;;;;;;17.80;3.00;;;20.50;99.90;;;;;;5045392;28;20072;-75
2022/08/01 08:53:16;;;;;;;16.23;3.30;;;20.60;99.90;;;;;;5043103;28;20037;-75
2022/08/01 08:55:44;;;;;;;20.73;3.40;;;20.60;99.90;;;;;;5045845;28;20115;-75
2022/08/01 08:58:16;;;;;;;16.60;3.15;;;20.70;99.90;;;;;;5043718;28;20045;-75
2022/08/01 09:00:41;;;;;;;15.13;2.92;;;20.70;99.90;;;;;;5044943;28;20060;-75
2022/08/01 09:03:07;;;;;;;18.58;3.85;;;20.70;99.90;;;;;;5044558;28;23026;-75
2022/08/01 09:05:33;;;;;;;12.77;2.67;;;20.70;99.90;;;;;;5044029;28;20052;-75
2022/08/01 09:07:59;;;;;;;13.52;3.50;;;20.70;99.90;;;;;;5044845;28;20056;-75
2022/08/01 09:10:25;;;;;;;11.65;2.85;;;20.80;99.90;;;;;;5042128;28;20037;-75
2022/08/01 09:13:12;;;;;;;11.48;2.78;;;20.80;99.90;;;;;;5042581;28;20055;-73
2022/08/01 09:15:50;;;;;;;12.77;2.88;;;20.80;99.90;;;;;;5042827;28;20565;-74
2022/08/01 09:18:44;;;;;;;15.20;2.65;;;21.00;99.90;;;;;;5043137;28;20045;-74
2022/08/01 09:21:12;;;;;;;15.00;2.90;;;21.20;99.90;;;;;;5041109;28;20123;-73
2022/08/01 09:23:42;;;;;;;17.30;3.30;;;21.20;99.90;;;;;;5043792;28;20037;-73
2022/08/01 09:26:28;;;;;;;10.77;2.25;;;21.30;99.90;;;;;;5042562;28;20492;-73
2022/08/01 09:28:54;;;;;;;15.68;2.90;;;21.20;99.90;;;;;;5025651;28;20052;-73
2022/08/01 09:31:20;;;;;;;15.32;2.60;;;21.20;99.90;;;;;;5048035;28;20048;-73
2022/08/01 09:33:57;;;;;;;10.73;2.45;;;21.30;99.90;;;;;;5027286;28;20044;-74
2022/08/01 09:36:25;;;;;;;12.13;2.50;;;21.30;99.90;;;;;;5044667;28;20051;-74
2022/08/01 09:38:53;;;;;;;14.27;2.90;;;21.40;99.90;;;;;;5040493;28;20052;-76
2022/08/01 09:41:30;;;;;;;12.38;2.38;;;21.50;99.90;;;;;;5042003;28;20037;-75
2022/08/01 09:43:56;;;;;;;10.75;2.38;;;21.50;99.90;;;;;;5046343;28;20032;-76
2022/08/01 09:46:25;;;;;;;14.65;2.10;;;21.50;99.90;;;;;;5043004;28;20047;-76
2022/08/01 09:49:05;;;;;;;11.70;2.33;;;21.40;99.90;;;;;;5040694;28;20051;-76
2022/08/01 09:51:36;;;;;;;10.07;2.25;;;21.50;99.90;;;;;;5044667;28;20083;-76
2022/08/01 09:54:05;;;;;;;14.93;2.63;;;21.50;99.90;;;;;;5041141;28;20120;-76
2022/08/01 09:56:40;;;;;;;12.68;2.70;;;21.60;99.90;;;;;;5040477;28;20056;-75
2022/08/01 09:59:06;;;;;;;10.52;2.05;;;21.70;99.90;;;;;;5043669;28;20411;-77
2022/08/01 10:01:43;;;;;;;9.80;2.10;;;21.80;99.90;;;;;;5043297;28;20115;-77
2022/08/01 10:04:18;;;;;;;13.05;2.60;;;21.80;99.90;;;;;;5025806;28;20040;-77
2022/08/01 10:06:49;;;;;;;10.27;2.13;;;21.90;99.90;;;;;;5044899;28;20040;-76
2022/08/01 10:09:26;;;;;;;12.02;2.67;;;21.90;99.90;;;;;;5042871;28;20198;-77
2022/08/01 10:11:52;;;;;;;12.98;2.47;;;21.80;99.90;;;;;;5043761;28;20495;-77
2022/08/01 10:14:19;;;;;;;7.47;2.03;;;21.80;99.90;;;;;;5044311;28;20522;-77
2022/08/01 10:16:47;;;;;;;12.38;2.13;;;21.80;99.90;;;;;;5055586;28;20508;-77
2022/08/01 10:19:13;;;;;;;11.68;2.45;;;21.80;99.90;;;;;;5042683;28;20186;-73
2022/08/01 10:21:40;;;;;;;12.65;2.20;;;21.90;99.90;;;;;;5041569;28;20037;-73
2022/08/01 10:24:10;;;;;;;10.75;2.40;;;22.00;99.90;;;;;;5024767;28;20390;-73
2022/08/01 10:26:38;;;;;;;10.07;2.17;;;22.20;99.90;;;;;;5042352;28;20041;-73
2022/08/01 10:29:05;;;;;;;8.50;1.88;;;22.20;99.90;;;;;;5057110;28;20493;-73
2022/08/01 10:31:32;;;;;;;6.03;1.58;;;22.30;99.90;;;;;;5041440;28;20411;-73
2022/08/01 10:33:59;;;;;;;7.45;1.70;;;22.40;99.90;;;;;;5041486;28;20508;-73
2022/08/01 10:36:25;;;;;;;8.32;1.77;;;22.40;99.90;;;;;;5042396;28;20399;-73
2022/08/01 10:38:53;;;;;;;6.57;1.60;;;22.50;99.90;;;;;;5041322;28;20037;-73
2022/08/01 10:41:20;;;;;;;7.75;2.08;;;22.50;99.90;;;;;;5043483;28;20047;-73
2022/08/01 10:43:46;;;;;;;6.90;1.73;;;22.70;99.90;;;;;;5040848;28;20041;-73
2022/08/01 10:46:12;;;;;;;10.60;1.80;;;22.80;99.90;;;;;;5041725;28;20064;-73
2022/08/01 10:49:02;;;;;;;7.72;1.60;;;22.90;99.90;;;;;;5044321;28;20126;-73
2022/08/01 10:51:29;;;;;;;7.32;2.15;;;23.00;99.90;;;;;;5041053;28;20426;-73
2022/08/01 10:53:55;;;;;;;7.28;1.55;;;23.20;99.90;;;;;;5040204;28;20074;-73
2022/08/01 10:56:22;;;;;;;6.25;1.42;;;23.40;99.90;;;;;;5041487;28;20102;-73
2022/08/01 10:58:48;;;;;;;7.10;1.83;;;23.60;99.90;;;;;;5041491;28;20666;-73
2022/08/01 11:01:20;;;;;;;8.40;1.70;;;23.80;99.70;;;;;;5042997;28;20396;-73
2022/08/01 11:04:00;;;;;;;7.32;1.70;;;23.80;99.90;;;;;;5036996;28;20144;-73
2022/08/01 11:06:32;;;;;;;7.63;1.52;;;23.90;99.90;;;;;;5043803;28;20462;-73
2022/08/01 11:09:00;;;;;;;6.57;1.67;;;24.00;99.90;;;;;;5046567;28;20094;-73
2022/08/01 11:11:26;;;;;;;8.27;1.63;;;24.10;99.90;;;;;;5046163;28;20136;-73
2022/08/01 11:14:01;;;;;;;8.02;1.60;;;24.20;99.90;;;;;;5045076;28;20068;-74
2022/08/01 11:16:32;;;;;;;6.97;1.92;;;24.10;99.60;;;;;;5046175;28;20126;-74
2022/08/01 11:18:58;;;;;;;10.10;2.15;;;24.20;99.90;;;;;;5042953;28;20051;-73
2022/08/01 11:21:52;;;;;;;8.10;1.95;;;24.10;99.00;;;;;;5049560;28;20484;-73
2022/08/01 11:24:46;;;;;;;8.93;1.95;;;23.90;98.40;;;;;;5049623;28;20129;-74
2022/08/01 11:27:24;;;;;;;6.82;1.67;;;23.90;99.90;;;;;;5040550;28;20034;-74
2022/08/01 11:30:08;;;;;;;6.60;1.45;;;23.90;99.00;;;;;;5045878;28;20033;-74
2022/08/01 11:32:56;;;;;;;8.40;1.55;;;23.80;94.00;;;;;;5033975;28;20091;-73
2022/08/01 11:35:26;;;;;;;8.52;1.60;;;23.80;96.80;;;;;;5051940;28;20040;-73
2022/08/01 11:37:55;;;;;;;7.30;1.60;;;23.70;99.30;;;;;;5051196;28;20138;-73
2022/08/01 11:40:24;;;;;;;9.15;1.77;;;23.80;99.00;;;;;;5046062;28;20049;-73
2022/08/01 11:43:09;;;;;;;8.45;1.60;;;23.80;98.60;;;;;;5053671;28;20044;-73
2022/08/01 11:45:52;;;;;;;6.25;1.30;;;23.90;97.80;;;;;;5040779;28;20041;-73
2022/08/01 11:48:23;;;;;;;7.05;1.65;;;23.90;97.60;;;;;;5033630;28;20060;-73
2022/08/01 11:50:54;;;;;;;11.35;1.77;;;23.80;97.80;;;;;;5042152;28;20048;-73
2022/08/01 11:53:20;;;;;;;5.93;1.48;;;23.90;98.80;;;;;;5054870;28;20043;-73
2022/08/01 11:55:48;;;;;;;6.57;1.60;;;24.00;93.30;;;;;;5053506;28;20041;-73
2022/08/01 11:58:15;;;;;;;5.10;1.50;;;24.00;95.20;;;;;;5048591;28;20041;-73
2022/08/01 12:00:41;;;;;;;7.53;1.90;;;24.10;96.00;;;;;;5049807;28;20037;-73
2022/08/01 12:03:08;;;;;;;8.30;1.88;;;24.10;95.70;;;;;;5048091;28;20044;-73
2022/08/01 12:05:36;;;;;;;8.25;1.83;;;24.10;97.20;;;;;;5047766;28;20554;-73
2022/08/01 12:08:04;;;;;;;5.38;1.50;;;24.10;96.40;;;;;;5048757;28;20045;-73
2022/08/01 12:10:36;;;;;;;6.00;1.50;;;24.10;97.70;;;;;;5047586;28;20041;-73
2022/08/01 12:13:03;;;;;;;;;;;24.10;96.50;;;;;;5043937;28;20044;-73
2022/08/01 12:15:34;;;;;;;5.68;1.35;;;24.10;97.00;;;;;;5044863;28;20000;-73
2022/08/01 12:18:04;;;;;;;9.20;1.90;;;24.10;96.70;;;;;;5038572;28;20207;-73
2022/08/01 12:20:35;;;;;;;6.90;1.67;;;24.10;96.80;;;;;;5047777;28;20075;-73
2022/08/01 12:23:10;;;;;;;6.77;1.60;;;24.30;94.80;;;;;;5043325;28;20051;-73
2022/08/01 12:25:36;;;;;;;4.97;1.50;;;24.40;93.30;;;;;;5041025;28;20292;-73
2022/08/01 12:28:05;;;;;;;7.45;1.63;;;24.60;92.30;;;;;;5038444;28;20041;-74
2022/08/01 12:30:34;;;;;;;7.25;1.50;;;24.70;93.90;;;;;;5044817;28;20091;-73
2022/08/01 12:33:01;;;;;;;7.35;1.40;;;24.80;91.70;;;;;;5026805;28;20732;-73
2022/08/01 12:35:28;;;;;;;7.20;1.58;;;24.80;93.50;;;;;;5045172;28;20044;-73
2022/08/01 12:38:01;;;;;;;8.98;1.77;;;24.70;95.50;;;;;;5045845;28;20130;-73
2022/08/01 12:40:35;;;;;;;7.35;1.83;;;24.60;95.10;;;;;;5049993;28;20044;-73
2022/08/01 12:43:06;;;;;;;6.38;1.65;;;24.50;96.80;;;;;;5045263;28;20043;-73
2022/08/01 12:45:44;;;;;;;10.30;1.83;;;24.70;95.60;;;;;;5047758;28;20055;-77
2022/08/01 12:48:12;;;;;;;7.93;1.77;;;24.70;93.90;;;;;;5043798;28;20041;-74
2022/08/01 12:50:44;;;;;;;7.63;1.55;;;24.80;93.20;;;;;;5050316;28;20132;-74